Time;durP1;ratioP1;P1;durP2;ratioP2;P2;SDS_P1;SDS_P2;PMS_P1;PMS_P2;Temp;Humidity;BMP_temperature;BMP_pressure;BME280_temperature;BME280_humidity;BME280_pressure;Samples;Min_cycle;Max_cycle;Signal;HPM_P1;HPM_P2
2022/01/16 00:00:53;;;;;;;34.72;18.88;;;;;;;1.63;100.00;102044.94;5092891;28;20244;-41
2022/01/16 00:06:03;;;;;;;39.58;18.92;;;;;;;1.73;100.00;102019.59;5092244;28;20323;-40
2022/01/16 00:08:28;;;;;;;29.38;19.00;;;;;;;1.73;100.00;102026.63;5092626;28;20193;-43
2022/01/16 00:10:53;;;;;;;33.55;19.30;;;;;;;1.76;100.00;102037.25;5092240;28;20634;-41
2022/01/16 00:13:19;;;;;;;34.47;19.35;;;;;;;1.81;100.00;102027.66;5092493;28;20638;-41
2022/01/16 00:15:44;;;;;;;33.63;19.23;;;;;;;1.82;100.00;102022.41;5091463;28;20201;-41
2022/01/16 00:18:21;;;;;;;35.70;19.95;;;;;;;1.89;100.00;102025.16;5092481;28;20178;-42
2022/01/16 00:20:48;;;;;;;36.00;20.35;;;;;;;1.88;100.00;102021.63;5092371;28;20618;-42
2022/01/16 00:23:21;;;;;;;36.30;20.58;;;;;;;1.89;100.00;102015.47;5096014;28;20183;-40
2022/01/16 00:25:47;;;;;;;31.15;19.83;;;;;;;1.89;100.00;102031.31;5110619;28;20708;-42
2022/01/16 00:28:12;;;;;;;40.13;20.45;;;;;;;1.95;100.00;102044.63;5112203;28;20177;-42
2022/01/16 00:30:38;;;;;;;40.33;20.63;;;;;;;1.94;100.00;102039.31;5112638;28;20196;-41
2022/01/16 00:33:03;;;;;;;35.33;19.65;;;;;;;1.96;100.00;102035.81;5112086;28;20162;-41
2022/01/16 00:35:28;;;;;;;33.00;20.20;;;;;;;1.98;100.00;102027.94;5111957;28;20279;-42
2022/01/16 00:37:54;;;;;;;37.60;21.20;;;;;;;1.99;100.00;102024.41;5112140;28;20479;-40
2022/01/16 00:40:19;;;;;;;35.38;19.90;;;;;;;2.03;100.00;102031.53;5111785;28;20157;-42
2022/01/16 00:42:45;;;;;;;34.78;20.35;;;;;;;2.08;100.00;102029.88;5112304;28;20330;-43
2022/01/16 00:45:10;;;;;;;36.55;20.83;;;;;;;2.00;100.00;102015.63;5111231;28;20197;-40
2022/01/16 00:47:36;;;;;;;32.95;19.90;;;;;;;2.02;100.00;102009.50;5111737;28;20178;-41
2022/01/16 00:50:02;;;;;;;36.78;20.02;;;;;;;1.95;100.00;101997.06;5110662;28;20215;-42
2022/01/16 00:52:28;;;;;;;33.78;20.90;;;;;;;1.95;100.00;101998.81;5111986;28;20189;-42
2022/01/16 00:54:55;;;;;;;37.28;20.75;;;;;;;1.93;100.00;101968.84;5112029;28;20234;-41
2022/01/16 00:57:20;;;;;;;32.95;19.30;;;;;;;1.92;100.00;101965.28;5111252;28;20157;-41
2022/01/16 00:59:45;;;;;;;33.40;20.55;;;;;;;1.87;100.00;101958.16;5111913;28;20181;-40
2022/01/16 01:02:11;;;;;;;35.92;21.08;;;;;;;1.87;100.00;101963.44;5111498;27;20226;-41
2022/01/16 01:04:36;;;;;;;40.88;20.85;;;;;;;1.83;100.00;101966.03;5111165;28;20180;-41
2022/01/16 01:07:02;;;;;;;33.35;20.10;;;;;;;1.84;100.00;101935.22;5111267;28;20185;-40
2022/01/16 01:09:27;;;;;;;36.72;20.55;;;;;;;1.88;100.00;101949.34;5111688;28;20193;-41
2022/01/16 01:11:52;;;;;;;35.30;20.83;;;;;;;1.82;100.00;101961.63;5111631;28;20591;-44
2022/01/16 01:14:37;;;;;;;36.10;20.92;;;;;;;1.79;100.00;101963.31;5111293;28;20173;-42
2022/01/16 01:17:03;;;;;;;35.83;20.60;;;;;;;1.78;100.00;101973.00;5111418;28;20240;-44
2022/01/16 01:19:33;;;;;;;32.58;19.33;;;;;;;1.82;100.00;101987.16;5111369;28;20585;-44
2022/01/16 01:21:59;;;;;;;36.42;20.27;;;;;;;1.75;100.00;101975.59;5112071;28;20178;-42
2022/01/16 01:24:26;;;;;;;32.03;20.38;;;;;;;1.80;100.00;101959.81;5111103;28;20185;-40
2022/01/16 01:27:00;;;;;;;34.85;20.20;;;;;;;1.74;100.00;101983.50;5111089;28;20185;-43
2022/01/16 01:29:28;;;;;;;35.08;21.50;;;;;;;1.73;100.00;101974.69;5111326;28;20539;-41
2022/01/16 01:31:54;;;;;;;37.17;21.33;;;;;;;1.70;100.00;101974.63;5111256;28;20345;-42
2022/01/16 01:34:19;;;;;;;38.92;21.73;;;;;;;1.69;100.00;101964.06;5111203;28;20173;-42
2022/01/16 01:36:48;;;;;;;39.85;21.38;;;;;;;1.67;100.00;101979.88;5110951;28;20539;-44
2022/01/16 01:39:15;;;;;;;37.03;21.98;;;;;;;1.70;100.00;101979.03;5111344;28;20217;-41
2022/01/16 01:41:41;;;;;;;36.60;22.48;;;;;;;1.63;100.00;101978.91;5111160;27;20184;-42
2022/01/16 01:52:18;;;;;;;34.70;21.23;;;;;;;1.62;100.00;101950.72;5111317;28;20158;-41
2022/01/16 01:54:44;;;;;;;42.22;22.63;;;;;;;1.60;100.00;101918.13;5110908;28;20182;-42
2022/01/16 01:57:10;;;;;;;34.03;21.48;;;;;;;1.54;100.00;101859.03;5109463;28;20238;-42
2022/01/16 01:59:39;;;;;;;37.75;20.38;;;;;;;1.57;100.00;101852.03;5110775;28;20172;-44
2022/01/16 02:02:06;;;;;;;37.95;22.98;;;;;;;1.48;100.00;101865.09;5110966;28;20185;-40
2022/01/16 02:04:31;;;;;;;39.15;23.15;;;;;;;1.47;100.00;101863.31;5110798;28;20667;-41
2022/01/16 02:06:57;;;;;;;41.22;24.08;;;;;;;1.39;100.00;101843.81;5108981;28;20232;-41
2022/01/16 02:09:23;;;;;;;40.75;23.42;;;;;;;1.36;100.00;101862.28;5110685;28;20204;-44
2022/01/16 02:11:51;;;;;;;34.40;22.40;;;;;;;1.37;100.00;101871.97;5110659;28;20176;-42
2022/01/16 02:14:28;;;;;;;40.65;22.90;;;;;;;1.32;100.00;101868.38;5110543;28;20173;-41
2022/01/16 02:34:29;;;;;;;41.20;25.15;;;;;;;1.30;100.00;101872.72;5090242;28;20540;-42
2022/01/16 02:36:34;;;;;;;42.38;23.65;;;;;;;1.31;100.00;101867.47;5089932;28;20194;-43
2022/01/16 02:39:07;;;;;;;43.85;24.58;;;;;;;1.33;100.00;101867.47;5090374;28;20165;-41
2022/01/16 02:41:33;;;;;;;38.00;23.80;;;;;;;1.40;100.00;101872.00;5089869;28;20170;-44
2022/01/16 02:43:59;;;;;;;43.40;24.67;;;;;;;1.45;100.00;101875.63;5090494;28;20279;-41
2022/01/16 02:48:50;;;;;;;46.05;27.10;;;;;;;1.57;100.00;101881.06;5110161;28;20201;-42
2022/01/16 02:51:23;;;;;;;41.75;25.58;;;;;;;1.53;100.00;101871.34;5109850;28;20235;-41
2022/01/16 02:53:50;;;;;;;45.00;26.83;;;;;;;1.57;100.00;101852.03;5109942;28;20178;-42
2022/01/16 02:56:16;;;;;;;43.20;28.02;;;;;;;1.63;100.00;101859.16;5109802;28;20362;-40
2022/01/16 02:58:43;;;;;;;43.47;25.98;;;;;;;1.63;100.00;101853.88;5110072;28;20219;-41
2022/01/16 03:01:09;;;;;;;45.97;27.55;;;;;;;1.64;100.00;101860.97;5110014;28;20181;-45
2022/01/16 03:03:34;;;;;;;44.47;27.10;;;;;;;1.65;100.00;101860.06;5110258;28;20178;-42
2022/01/16 03:06:00;;;;;;;48.40;27.38;;;;;;;1.69;100.00;101853.09;5109694;28;20193;-42
2022/01/16 03:08:26;;;;;;;47.60;29.08;;;;;;;1.70;100.00;101846.94;5113294;28;20221;-41
2022/01/16 03:13:39;;;;;;;46.53;29.10;;;;;;;1.79;100.00;101844.41;5113760;28;20176;-41
2022/01/16 03:16:06;;;;;;;51.55;30.13;;;;;;;1.75;100.00;101839.94;5113024;28;20285;-42
2022/01/16 03:23:41;;;;;;;47.45;30.13;;;;;;;1.76;100.00;101797.72;5113649;27;20188;-42
2022/01/16 03:26:07;;;;;;;45.90;29.00;;;;;;;1.73;100.00;101805.59;5112892;28;20472;-43
2022/01/16 03:28:32;;;;;;;49.85;30.23;;;;;;;1.74;100.00;101788.00;5113637;27;20161;-44
2022/01/16 03:30:58;;;;;;;46.85;30.13;;;;;;;1.74;100.00;101786.22;5112828;28;20201;-42
2022/01/16 03:33:23;;;;;;;50.35;29.98;;;;;;;1.79;100.00;101784.56;5113213;28;20200;-43
2022/01/16 03:35:49;;;;;;;48.30;29.75;;;;;;;1.82;100.00;101789.00;5113025;28;20194;-41
2022/01/16 03:38:15;;;;;;;51.90;31.17;;;;;;;1.78;100.00;101795.97;5113316;28;20243;-42
2022/01/16 03:40:40;;;;;;;50.33;29.83;;;;;;;1.83;100.00;101790.75;5113262;28;20166;-42
2022/01/16 03:43:13;;;;;;;47.88;29.17;;;;;;;1.86;100.00;101790.81;5112916;28;20180;-41
2022/01/16 03:45:41;;;;;;;52.88;30.17;;;;;;;1.87;100.00;101794.34;5113132;27;20217;-42
2022/01/16 03:48:06;;;;;;;50.08;30.17;;;;;;;1.86;100.00;101785.53;5113025;28;20169;-42
2022/01/16 03:50:32;;;;;;;46.80;29.08;;;;;;;1.87;100.00;101782.00;5113033;28;20612;-41
2022/01/16 03:52:57;;;;;;;48.97;30.88;;;;;;;1.94;100.00;101773.28;5112929;28;20310;-42
2022/01/16 03:55:22;;;;;;;52.92;29.35;;;;;;;1.90;100.00;101774.09;5113030;28;20189;-42
2022/01/16 03:57:48;;;;;;;51.95;30.42;;;;;;;1.88;100.00;101767.03;5112750;28;20222;-40
2022/01/16 04:00:13;;;;;;;50.63;30.90;;;;;;;1.89;100.00;101766.19;5112764;28;20158;-43
2022/01/16 04:02:40;;;;;;;51.50;30.50;;;;;;;1.90;100.00;101755.59;5113056;28;20238;-43
2022/01/16 04:05:05;;;;;;;50.05;30.42;;;;;;;1.93;100.00;101775.91;5112610;27;20185;-41
2022/01/16 04:07:35;;;;;;;53.08;30.77;;;;;;;1.96;100.00;101771.53;5112716;28;20546;-42
2022/01/16 04:10:05;;;;;;;54.28;30.77;;;;;;;2.00;100.00;101760.13;5112743;28;20231;-42
2022/01/16 04:12:33;;;;;;;55.05;31.38;;;;;;;2.02;100.00;101755.75;5112481;28;20169;-41
2022/01/16 04:17:24;;;;;;;57.75;32.63;;;;;;;1.96;100.00;101749.50;5112079;28;20181;-44
2022/01/16 04:19:51;;;;;;;51.50;30.80;;;;;;;1.99;100.00;101760.09;5111490;28;20157;-43
2022/01/16 04:22:17;;;;;;;63.33;34.22;;;;;;;2.00;100.00;101743.41;5112391;28;20532;-42
2022/01/16 04:24:43;;;;;;;62.47;33.55;;;;;;;2.04;100.00;101737.28;5112393;28;20173;-43
2022/01/16 04:27:10;;;;;;;65.15;33.97;;;;;;;2.10;100.00;101745.28;5111925;28;20182;-42
2022/01/16 04:29:36;;;;;;;67.15;35.22;;;;;;;2.10;100.00;101732.06;5112040;28;20205;-43
2022/01/16 04:32:02;;;;;;;63.53;34.67;;;;;;;2.13;100.00;101741.78;5112301;28;20181;-43
2022/01/16 04:34:28;;;;;;;66.78;33.58;;;;;;;2.06;100.00;101747.00;5111846;28;20249;-43
2022/01/16 04:36:53;;;;;;;66.75;32.78;;;;;;;2.08;100.00;101740.84;5111937;28;20185;-39
2022/01/16 04:39:21;;;;;;;78.05;35.70;;;;;;;2.05;100.00;101739.94;5112114;28;20290;-42
2022/01/16 04:44:31;;;;;;;70.75;33.80;;;;;;;2.19;100.00;101753.31;5112014;28;20545;-41
2022/01/16 04:46:58;;;;;;;74.85;34.40;;;;;;;2.17;100.00;101748.88;5103662;28;20201;-40
2022/01/16 04:49:23;;;;;;;75.05;33.38;;;;;;;2.17;100.00;101756.81;5111922;28;20248;-43
2022/01/16 04:51:49;;;;;;;77.95;34.38;;;;;;;2.17;100.00;101751.53;5111831;28;20201;-41
2022/01/16 04:54:14;;;;;;;80.78;36.15;;;;;;;2.19;100.00;101739.22;5111633;28;20260;-42
2022/01/16 04:56:40;;;;;;;75.90;35.50;;;;;;;2.13;100.00;101741.78;5111254;28;20245;-42
2022/01/16 04:59:06;;;;;;;73.43;33.47;;;;;;;2.14;100.00;101748.84;5111905;28;20543;-40
2022/01/16 05:01:32;;;;;;;73.95;34.50;;;;;;;2.17;100.00;101738.31;5111862;28;20182;-40
2022/01/16 05:03:57;;;;;;;74.85;33.97;;;;;;;2.15;100.00;101726.84;5105838;28;20208;-43
2022/01/16 05:06:23;;;;;;;67.93;34.47;;;;;;;2.17;100.00;101728.63;5097793;28;20288;-41
2022/01/16 05:08:49;;;;;;;69.07;34.17;;;;;;;2.13;100.00;101725.94;5111155;28;20665;-43
2022/01/16 05:11:18;;;;;;;58.90;32.95;;;;;;;2.13;100.00;101718.88;5111643;28;20483;-42
2022/01/16 05:18:54;;;;;;;59.75;32.78;;;;;;;2.09;100.00;101695.91;5111591;28;20259;-42
2022/01/16 05:21:19;;;;;;;59.70;33.72;;;;;;;2.11;100.00;101699.47;5111130;28;20166;-39
2022/01/16 05:23:45;;;;;;;59.10;34.72;;;;;;;2.14;100.00;101693.31;5110257;28;20184;-41
2022/01/16 05:26:12;;;;;;;57.20;34.42;;;;;;;2.12;100.00;101695.06;5110964;28;20189;-40
2022/01/16 05:28:37;;;;;;;52.42;32.20;;;;;;;2.17;100.00;101690.72;5111515;28;20254;-42
2022/01/16 05:31:04;;;;;;;58.75;33.00;;;;;;;2.17;100.00;101686.31;5110970;28;20211;-40
2022/01/16 05:33:30;;;;;;;52.60;32.35;;;;;;;2.20;100.00;101691.63;5111160;28;20174;-41
2022/01/16 05:35:56;;;;;;;51.22;31.55;;;;;;;2.17;100.00;101673.09;5110653;28;20185;-40
2022/01/16 05:38:22;;;;;;;52.47;32.05;;;;;;;2.20;100.00;101677.53;5111221;28;20174;-41
2022/01/16 05:40:47;;;;;;;53.25;33.20;;;;;;;2.22;100.00;101671.38;5111489;28;20184;-41
2022/01/16 05:43:13;;;;;;;51.38;31.92;;;;;;;2.24;100.00;101671.41;5111042;28;20173;-40
2022/01/16 05:45:38;;;;;;;51.60;33.20;;;;;;;2.26;100.00;101662.59;5110640;28;20287;-40
2022/01/16 05:48:04;;;;;;;47.53;31.30;;;;;;;2.28;100.00;101662.63;5111565;28;20165;-41
2022/01/16 05:50:31;;;;;;;56.55;32.25;;;;;;;2.30;100.00;101668.81;5110765;28;20302;-43
2022/01/16 05:52:57;;;;;;;54.63;33.03;;;;;;;2.27;100.00;101668.78;5111130;28;20654;-42
2022/01/16 05:55:23;;;;;;;53.80;33.47;;;;;;;2.25;100.00;101663.50;5110587;28;20181;-41
2022/01/16 05:57:48;;;;;;;52.22;32.97;;;;;;;2.30;100.00;101658.25;5110341;28;20702;-42
2022/01/16 06:00:15;;;;;;;57.92;34.70;;;;;;;2.28;100.00;101649.41;5110893;28;20161;-42
2022/01/16 06:02:41;;;;;;;48.83;31.75;;;;;;;2.32;100.00;101650.31;5110830;28;20237;-42
2022/01/16 06:05:07;;;;;;;54.97;34.20;;;;;;;2.28;100.00;101633.56;5110372;28;20672;-42
2022/01/16 06:07:33;;;;;;;52.92;32.22;;;;;;;2.32;100.00;101634.44;5110403;28;20195;-39
2022/01/16 06:09:58;;;;;;;54.85;33.63;;;;;;;2.30;100.00;101631.81;5110770;28;20665;-44
2022/01/16 06:12:23;;;;;;;50.42;32.10;;;;;;;2.33;100.00;101631.81;5110616;28;20369;-45
2022/01/16 06:14:49;;;;;;;50.60;31.10;;;;;;;2.35;100.00;101637.13;5110694;28;20527;-43
2022/01/16 06:17:14;;;;;;;47.30;30.83;;;;;;;2.40;100.00;101624.81;5110214;28;20310;-43
2022/01/16 06:19:40;;;;;;;55.67;33.15;;;;;;;2.34;100.00;101635.34;5110433;28;20162;-43
2022/01/16 06:22:06;;;;;;;50.80;31.38;;;;;;;2.39;100.00;101631.88;5110339;28;20586;-45
2022/01/16 06:24:32;;;;;;;50.17;32.08;;;;;;;2.39;100.00;101616.00;5110324;28;20194;-44
2022/01/16 06:26:57;;;;;;;51.88;32.08;;;;;;;2.37;100.00;101615.09;5110349;28;20190;-43
2022/01/16 06:29:23;;;;;;;51.63;32.38;;;;;;;2.37;100.00;101612.47;5110419;28;20196;-43
2022/01/16 06:31:48;;;;;;;50.22;32.55;;;;;;;2.47;100.00;101614.31;5110549;28;20177;-43
2022/01/16 06:34:14;;;;;;;51.72;30.52;;;;;;;2.37;100.00;101614.22;5110136;28;20201;-45
2022/01/16 06:36:40;;;;;;;49.80;29.27;;;;;;;2.38;100.00;101601.00;5110126;28;20210;-42
2022/01/16 06:39:09;;;;;;;50.83;30.05;;;;;;;2.42;100.00;101609.84;5110619;28;20220;-41
2022/01/16 06:41:35;;;;;;;49.78;29.02;;;;;;;2.43;100.00;101606.34;5110562;28;20189;-44
2022/01/16 06:44:01;;;;;;;49.72;28.40;;;;;;;2.56;100.00;101599.38;5114276;28;20173;-43
2022/01/16 06:46:27;;;;;;;47.13;28.05;;;;;;;2.43;100.00;101609.00;5113699;27;20208;-43
2022/01/16 06:48:54;;;;;;;50.70;27.73;;;;;;;2.46;100.00;101607.25;5113943;28;20189;-44
2022/01/16 06:51:20;;;;;;;51.53;29.00;;;;;;;2.48;100.00;101605.50;5114233;28;20539;-44
2022/01/16 06:53:47;;;;;;;49.92;28.77;;;;;;;2.49;100.00;101606.38;5114106;28;20169;-42
2022/01/16 06:56:15;;;;;;;43.72;27.58;;;;;;;2.51;100.00;101620.50;5113900;28;20189;-44
2022/01/16 06:58:40;;;;;;;48.47;28.65;;;;;;;2.46;100.00;101612.53;5114013;27;20633;-44
2022/01/16 07:01:06;;;;;;;48.55;28.25;;;;;;;2.44;100.00;101627.50;5113808;28;20269;-44
2022/01/16 07:03:31;;;;;;;45.92;27.77;;;;;;;2.38;100.00;101629.22;5113862;28;20181;-43
2022/01/16 07:05:57;;;;;;;45.72;27.25;;;;;;;2.38;100.00;101616.88;5113459;28;20190;-44
2022/01/16 07:08:26;;;;;;;50.65;28.27;;;;;;;2.33;100.00;101615.94;5113988;28;20639;-42
2022/01/16 07:10:56;;;;;;;51.25;28.88;;;;;;;2.39;100.00;101613.38;5113702;28;20201;-45
2022/01/16 07:13:23;;;;;;;47.75;27.65;;;;;;;2.36;100.00;101623.94;5114040;28;20317;-43
2022/01/16 07:15:49;;;;;;;48.70;28.83;;;;;;;2.39;100.00;101633.66;5113079;28;20215;-42
2022/01/16 07:18:15;;;;;;;46.88;27.85;;;;;;;2.31;100.00;101615.06;5113734;28;20254;-44
2022/01/16 07:20:43;;;;;;;48.30;29.35;;;;;;;2.35;100.00;101614.22;5112186;28;20188;-43
2022/01/16 07:23:09;;;;;;;53.42;30.90;;;;;;;2.30;100.00;101629.16;5113271;28;20612;-43
2022/01/16 07:25:35;;;;;;;54.05;29.30;;;;;;;2.36;100.00;101628.31;5112927;28;20189;-45
2022/01/16 07:28:00;;;;;;;57.70;30.35;;;;;;;2.28;100.00;101630.03;5112999;28;20677;-45
2022/01/16 07:30:26;;;;;;;54.78;30.17;;;;;;;2.29;100.00;101629.13;5113136;28;20221;-42
2022/01/16 07:32:51;;;;;;;53.88;29.92;;;;;;;2.31;100.00;101636.22;5095015;28;20602;-44
2022/01/16 07:35:17;;;;;;;51.92;29.02;;;;;;;2.31;100.00;101632.69;5112979;28;20549;-45
2022/01/16 07:37:42;;;;;;;53.33;29.63;;;;;;;2.31;100.00;101640.63;5112690;28;20180;-43
2022/01/16 07:40:10;;;;;;;51.30;28.85;;;;;;;2.34;100.00;101636.25;5112948;28;20173;-42
2022/01/16 07:42:36;;;;;;;58.15;29.65;;;;;;;2.32;100.00;101647.66;5113060;28;20157;-43
2022/01/16 07:45:03;;;;;;;51.33;29.67;;;;;;;2.28;100.00;101649.41;5112458;28;20547;-42
2022/01/16 07:47:29;;;;;;;51.78;29.65;;;;;;;2.25;100.00;101637.06;5112686;28;20226;-43
2022/01/16 07:49:54;;;;;;;59.05;32.67;;;;;;;2.21;100.00;101648.47;5111461;28;20654;-45
2022/01/16 07:52:20;;;;;;;62.80;35.78;;;;;;;2.23;100.00;101645.81;5111077;28;20182;-44
2022/01/16 07:54:45;;;;;;;59.13;33.92;;;;;;;2.20;100.00;101644.03;5110720;28;20181;-45
2022/01/16 07:57:10;;;;;;;55.17;30.52;;;;;;;2.20;100.00;101649.31;5111349;28;20192;-43
2022/01/16 07:59:36;;;;;;;54.60;29.33;;;;;;;2.13;100.00;101644.88;5111555;28;20177;-45
2022/01/16 08:02:02;;;;;;;55.30;29.10;;;;;;;2.14;100.00;101646.63;5110389;28;20274;-45
2022/01/16 08:04:27;;;;;;;55.03;29.38;;;;;;;2.10;100.00;101636.91;5112625;28;20593;-45
2022/01/16 08:06:52;;;;;;;52.03;29.13;;;;;;;2.05;100.00;101634.19;5111152;28;20197;-43
2022/01/16 08:09:18;;;;;;;57.53;28.10;;;;;;;2.11;100.00;101646.59;5111103;28;20762;-45
2022/01/16 08:11:43;;;;;;;56.97;28.20;;;;;;;2.14;100.00;101646.63;5084809;28;20216;-43
2022/01/16 08:14:09;;;;;;;56.47;29.13;;;;;;;2.16;100.00;101641.34;5090882;28;20251;-45
2022/01/16 08:16:34;;;;;;;58.65;26.20;;;;;;;2.11;100.00;101627.22;5101253;28;20197;-43
2022/01/16 08:18:59;;;;;;;56.58;26.90;;;;;;;2.03;100.00;101638.63;5112495;28;20537;-43
2022/01/16 08:21:25;;;;;;;64.00;27.85;;;;;;;2.07;100.00;101647.44;5112121;28;20172;-43
2022/01/16 08:23:50;;;;;;;63.00;27.40;;;;;;;2.05;100.00;101642.13;5112138;28;20319;-45
2022/01/16 08:26:16;;;;;;;56.90;25.67;;;;;;;2.04;100.00;101637.72;5111911;28;20208;-43
2022/01/16 08:28:41;;;;;;;64.30;27.58;;;;;;;2.04;100.00;101647.41;5110875;28;20230;-44
2022/01/16 08:31:06;;;;;;;63.92;27.63;;;;;;;2.09;100.00;101650.97;5112603;28;20645;-45
2022/01/16 08:33:32;;;;;;;63.13;29.05;;;;;;;2.07;100.00;101647.44;5112148;28;20173;-42
2022/01/16 08:35:57;;;;;;;63.70;28.75;;;;;;;2.04;100.00;101643.00;5112094;28;20193;-44
2022/01/16 08:38:23;;;;;;;68.80;28.58;;;;;;;2.05;100.00;101644.78;5112136;28;20173;-45
2022/01/16 08:40:48;;;;;;;62.70;28.15;;;;;;;2.03;100.00;101656.22;5110915;28;20262;-43
2022/01/16 08:43:14;;;;;;;67.63;28.40;;;;;;;2.04;100.00;101645.66;5109346;28;20168;-45
2022/01/16 08:45:41;;;;;;;64.07;29.02;;;;;;;2.06;100.00;101645.69;5111874;28;20274;-43
2022/01/16 08:48:08;;;;;;;66.38;28.88;;;;;;;2.11;100.00;101645.72;5111799;28;20177;-42
2022/01/16 08:50:35;;;;;;;65.72;29.30;;;;;;;2.06;100.00;101650.97;5111624;28;20254;-43
2022/01/16 08:53:01;;;;;;;70.38;31.23;;;;;;;2.01;100.00;101631.50;5111987;28;20526;-44
2022/01/16 08:55:27;;;;;;;67.38;28.70;;;;;;;2.00;100.00;101617.44;5110297;28;20215;-43
2022/01/16 08:57:52;;;;;;;78.18;29.63;;;;;;;2.00;100.00;101627.13;5111415;28;20176;-44
2022/01/16 09:00:18;;;;;;;72.68;29.52;;;;;;;2.06;100.00;101616.59;5112052;28;20210;-44
2022/01/16 09:02:43;;;;;;;70.20;28.52;;;;;;;2.11;100.00;101611.34;5111730;28;20177;-43
2022/01/16 09:05:09;;;;;;;72.28;28.58;;;;;;;2.01;100.00;101620.94;5111229;28;20208;-44
2022/01/16 09:07:35;;;;;;;78.57;30.55;;;;;;;2.01;100.00;101621.84;5111354;28;20551;-44
2022/01/16 09:10:01;;;;;;;64.50;27.65;;;;;;;2.15;100.00;101619.34;5109250;28;20193;-44
2022/01/16 09:12:29;;;;;;;65.05;28.15;;;;;;;1.97;100.00;101614.75;5102765;28;20173;-46
2022/01/16 09:14:55;;;;;;;71.07;29.58;;;;;;;1.96;100.00;101623.53;5102739;28;20233;-44
2022/01/16 09:17:21;;;;;;;69.65;27.95;;;;;;;1.94;100.00;101614.72;5108059;28;20656;-43
2022/01/16 09:19:47;;;;;;;71.88;28.40;;;;;;;1.89;100.00;101620.84;5109241;28;20299;-43
2022/01/16 09:22:12;;;;;;;69.78;27.42;;;;;;;1.93;100.00;101628.81;5111153;28;20160;-42
2022/01/16 09:24:37;;;;;;;73.68;28.42;;;;;;;1.98;100.00;101621.81;5111384;28;20177;-44
2022/01/16 09:27:03;;;;;;;69.82;28.83;;;;;;;1.92;100.00;101618.22;5106278;28;20208;-44
2022/01/16 09:29:29;;;;;;;80.93;29.58;;;;;;;1.94;100.00;101617.34;5106946;28;20196;-43
2022/01/16 09:31:55;;;;;;;72.18;29.45;;;;;;;2.01;100.00;101613.94;5090011;28;20518;-44
2022/01/16 09:34:20;;;;;;;73.03;27.88;;;;;;;1.99;100.00;101612.09;5090214;28;20174;-43
2022/01/16 09:36:45;;;;;;;68.22;28.13;;;;;;;1.93;100.00;101620.88;5089664;28;20221;-44
2022/01/16 09:39:11;;;;;;;78.50;29.63;;;;;;;1.98;100.00;101615.63;5089964;28;20236;-42
2022/01/16 09:41:37;;;;;;;67.63;27.52;;;;;;;2.01;100.00;101611.28;5087826;28;20205;-42
2022/01/16 09:44:03;;;;;;;72.40;28.55;;;;;;;2.04;100.00;101605.13;5089712;28;20603;-43
2022/01/16 09:46:28;;;;;;;67.97;27.77;;;;;;;2.07;100.00;101615.72;5089757;28;20190;-43
2022/01/16 09:48:54;;;;;;;69.38;27.92;;;;;;;2.09;100.00;101608.69;5089861;28;20197;-45
2022/01/16 09:51:19;;;;;;;71.18;28.70;;;;;;;2.01;100.00;101613.94;5099724;28;20183;-42
2022/01/16 09:53:45;;;;;;;70.90;27.33;;;;;;;1.99;100.00;101607.75;5109989;28;20161;-42
2022/01/16 09:56:11;;;;;;;69.43;27.58;;;;;;;2.04;100.00;101607.78;5109340;28;20201;-42
2022/01/16 09:58:38;;;;;;;71.55;28.55;;;;;;;1.97;100.00;101613.88;5110149;28;20185;-43
2022/01/16 10:01:04;;;;;;;68.68;27.25;;;;;;;2.02;100.00;101615.69;5110162;28;20187;-42
2022/01/16 10:03:39;;;;;;;63.72;26.65;;;;;;;2.13;100.00;101622.84;5110769;28;20446;-43
2022/01/16 10:06:10;;;;;;;69.22;28.25;;;;;;;2.04;100.00;101623.63;5109254;28;20230;-47
2022/01/16 10:08:37;;;;;;;66.18;26.95;;;;;;;2.05;100.00;101636.84;5110378;28;20542;-44
2022/01/16 10:11:28;;;;;;;66.75;26.63;;;;;;;2.08;100.00;101624.53;5110068;28;20200;-44
2022/01/16 10:14:22;;;;;;;73.32;27.83;;;;;;;2.08;100.00;101632.47;5110138;28;20197;-43
2022/01/16 10:16:42;;;;;;;66.00;26.02;;;;;;;2.02;100.00;101620.97;5108860;28;20212;-42
2022/01/16 10:19:23;;;;;;;63.00;26.80;;;;;;;2.07;100.00;101621.00;5112489;28;20252;-43
2022/01/16 10:21:50;;;;;;;60.03;26.25;;;;;;;2.07;100.00;101623.66;5101084;28;20537;-43
2022/01/16 10:24:43;;;;;;;69.32;26.88;;;;;;;2.08;100.00;101632.47;5094135;28;20173;-44
2022/01/16 10:27:08;;;;;;;63.22;25.52;;;;;;;2.08;100.00;101619.25;5089507;28;20221;-44
2022/01/16 10:29:47;;;;;;;60.35;26.17;;;;;;;2.16;100.00;101622.84;5103952;28;20196;-43
2022/01/16 10:32:25;;;;;;;61.13;26.40;;;;;;;2.12;100.00;101619.31;5101950;28;20221;-43
2022/01/16 10:35:07;;;;;;;55.90;24.15;;;;;;;2.05;100.00;101614.81;5093540;28;20185;-44
2022/01/16 10:37:33;;;;;;;52.38;23.10;;;;;;;2.08;100.00;101612.22;5102889;28;20162;-44
2022/01/16 10:40:07;;;;;;;57.42;25.17;;;;;;;2.11;100.00;101609.59;5103148;28;20685;-44
2022/01/16 10:42:33;;;;;;;59.30;23.75;;;;;;;2.06;100.00;101603.41;5108474;28;20172;-45
2022/01/16 10:45:18;;;;;;;56.28;23.98;;;;;;;2.12;100.00;101602.53;5111115;28;20182;-42
2022/01/16 10:47:51;;;;;;;54.15;23.08;;;;;;;2.05;100.00;101601.59;5093386;28;20711;-43
2022/01/16 10:50:23;;;;;;;54.92;24.33;;;;;;;2.05;100.00;101591.03;5093839;28;20570;-42
2022/01/16 10:53:01;;;;;;;59.15;22.92;;;;;;;2.15;100.00;101597.31;5094174;28;20166;-43
2022/01/16 10:55:47;;;;;;;57.53;23.67;;;;;;;2.18;100.00;101592.91;5094297;28;20228;-46
2022/01/16 10:58:28;;;;;;;51.55;23.25;;;;;;;2.24;100.00;101592.97;5093768;28;20634;-45
2022/01/16 11:00:56;;;;;;;57.05;23.88;;;;;;;2.22;100.00;101586.78;5101321;28;20639;-43
2022/01/16 11:03:22;;;;;;;57.42;23.63;;;;;;;2.15;100.00;101574.38;5112618;28;20177;-44
2022/01/16 11:05:50;;;;;;;49.67;22.88;;;;;;;2.22;100.00;101578.84;5112699;28;20325;-44
2022/01/16 11:08:18;;;;;;;54.22;23.60;;;;;;;2.20;100.00;101575.31;5114154;28;20169;-43
2022/01/16 11:10:46;;;;;;;54.15;23.77;;;;;;;2.25;100.00;101577.97;5114090;28;20607;-43
2022/01/16 11:13:13;;;;;;;59.28;25.67;;;;;;;2.27;100.00;101586.81;5113574;28;20204;-44
2022/01/16 11:15:40;;;;;;;58.40;25.50;;;;;;;2.29;100.00;101584.19;5112555;28;20205;-43
2022/01/16 11:18:08;;;;;;;65.13;26.65;;;;;;;2.34;100.00;101582.44;5113229;28;20161;-43
2022/01/16 11:20:36;;;;;;;68.63;27.05;;;;;;;2.30;100.00;101586.84;5110639;28;20173;-45
2022/01/16 11:23:12;;;;;;;65.47;27.85;;;;;;;2.32;100.00;101584.19;5093070;28;20188;-45
2022/01/16 11:25:39;;;;;;;62.53;27.00;;;;;;;2.35;100.00;101584.25;5092409;28;20213;-45
2022/01/16 11:28:05;;;;;;;65.30;28.23;;;;;;;2.33;100.00;101575.41;5091603;28;20201;-45
2022/01/16 11:30:32;;;;;;;63.92;27.65;;;;;;;2.36;100.00;101571.03;5092640;28;20197;-42
2022/01/16 11:32:59;;;;;;;72.13;29.17;;;;;;;2.40;100.00;101562.22;5092652;28;20507;-44
2022/01/16 11:35:29;;;;;;;70.55;29.45;;;;;;;2.39;100.00;101565.75;5092456;28;20186;-45
2022/01/16 11:37:55;;;;;;;75.05;30.27;;;;;;;2.43;100.00;101567.56;5092490;28;20182;-44
2022/01/16 11:40:27;;;;;;;70.60;30.45;;;;;;;2.46;100.00;101567.56;5091890;28;20169;-43
2022/01/16 11:43:23;;;;;;;80.68;30.17;;;;;;;2.55;100.00;101573.81;5092594;28;20170;-43
2022/01/16 11:46:05;;;;;;;83.90;31.90;;;;;;;2.62;100.00;101571.22;5091855;28;20209;-46
2022/01/16 11:48:35;;;;;;;84.60;32.35;;;;;;;2.74;100.00;101572.16;5092784;28;20190;-43
2022/01/16 11:51:02;;;;;;;80.28;32.63;;;;;;;2.73;100.00;101575.66;5092002;28;20674;-43
2022/01/16 11:54:13;;;;;;;74.28;31.75;;;;;;;2.78;100.00;101561.59;5091071;28;20183;-44
2022/01/16 11:56:39;;;;;;;88.30;33.03;;;;;;;2.82;100.00;101568.69;5089593;28;20263;-42
2022/01/16 11:59:22;;;;;;;86.93;36.38;;;;;;;2.86;100.00;101556.34;5091964;28;20522;-44